sensor_id;sensor_type;location;lat;lon;timestamp;P1;durP1;ratioP1;P2;durP2;ratioP2
966;SDS011;56108;48.730;9.304;2023-04-08T00:00:42;15.70;;;13.90;;
966;SDS011;56108;48.730;9.304;2023-04-08T00:02:53;15.32;;;11.98;;
966;SDS011;56108;48.730;9.304;2023-04-08T00:05:01;16.45;;;14.65;;
966;SDS011;56108;48.730;9.304;2023-04-08T00:07:09;15.52;;;13.57;;
966;SDS011;56108;48.730;9.304;2023-04-08T00:09:17;14.02;;;12.63;;
966;SDS011;56108;48.730;9.304;2023-04-08T00:11:25;16.13;;;13.75;;
966;SDS011;56108;48.730;9.304;2023-04-08T00:13:33;14.75;;;13.10;;
966;SDS011;56108;48.730;9.304;2023-04-08T00:15:41;14.18;;;12.13;;
966;SDS011;56108;48.730;9.304;2023-04-08T00:17:49;16.00;;;13.60;;
966;SDS011;56108;48.730;9.304;2023-04-08T00:20:00;15.15;;;13.27;;
966;SDS011;56108;48.730;9.304;2023-04-08T00:22:09;15.07;;;13.50;;
966;SDS011;56108;48.730;9.304;2023-04-08T00:24:18;16.08;;;14.30;;
966;SDS011;56108;48.730;9.304;2023-04-08T00:26:25;18.02;;;13.65;;
966;SDS011;56108;48.730;9.304;2023-04-08T00:28:34;16.17;;;14.23;;
966;SDS011;56108;48.730;9.304;2023-04-08T00:30:42;16.77;;;14.48;;
966;SDS011;56108;48.730;9.304;2023-04-08T00:32:50;16.98;;;14.80;;
966;SDS011;56108;48.730;9.304;2023-04-08T00:34:58;18.02;;;15.00;;
966;SDS011;56108;48.730;9.304;2023-04-08T00:37:08;18.75;;;15.60;;
966;SDS011;56108;48.730;9.304;2023-04-08T00:39:16;18.15;;;16.23;;
966;SDS011;56108;48.730;9.304;2023-04-08T00:41:24;17.92;;;15.68;;
966;SDS011;56108;48.730;9.304;2023-04-08T00:43:33;17.70;;;15.25;;
966;SDS011;56108;48.730;9.304;2023-04-08T00:45:41;17.88;;;15.50;;
966;SDS011;56108;48.730;9.304;2023-04-08T00:47:48;18.00;;;14.77;;
966;SDS011;56108;48.730;9.304;2023-04-08T00:49:57;19.90;;;15.60;;
966;SDS011;56108;48.730;9.304;2023-04-08T00:52:08;17.60;;;14.65;;
966;SDS011;56108;48.730;9.304;2023-04-08T00:54:16;17.65;;;15.35;;
966;SDS011;56108;48.730;9.304;2023-04-08T00:56:24;17.90;;;15.20;;
966;SDS011;56108;48.730;9.304;2023-04-08T00:58:33;19.77;;;16.05;;
966;SDS011;56108;48.730;9.304;2023-04-08T01:00:50;17.13;;;14.45;;
966;SDS011;56108;48.730;9.304;2023-04-08T01:03:06;19.45;;;16.13;;
966;SDS011;56108;48.730;9.304;2023-04-08T01:05:22;20.10;;;15.60;;
966;SDS011;56108;48.730;9.304;2023-04-08T01:07:40;16.90;;;15.02;;
966;SDS011;56108;48.730;9.304;2023-04-08T01:09:53;17.70;;;15.20;;
966;SDS011;56108;48.730;9.304;2023-04-08T01:12:05;19.08;;;15.75;;
966;SDS011;56108;48.730;9.304;2023-04-08T01:14:16;18.65;;;15.68;;
966;SDS011;56108;48.730;9.304;2023-04-08T01:16:28;17.83;;;14.77;;
966;SDS011;56108;48.730;9.304;2023-04-08T01:18:36;19.35;;;16.25;;
966;SDS011;56108;48.730;9.304;2023-04-08T01:20:45;16.95;;;14.02;;
966;SDS011;56108;48.730;9.304;2023-04-08T01:23:00;19.70;;;15.48;;
966;SDS011;56108;48.730;9.304;2023-04-08T01:25:15;18.67;;;15.80;;
966;SDS011;56108;48.730;9.304;2023-04-08T01:27:29;18.27;;;16.15;;
966;SDS011;56108;48.730;9.304;2023-04-08T01:29:38;19.67;;;15.27;;
966;SDS011;56108;48.730;9.304;2023-04-08T01:31:47;17.17;;;14.60;;
966;SDS011;56108;48.730;9.304;2023-04-08T01:33:55;17.40;;;15.50;;
966;SDS011;56108;48.730;9.304;2023-04-08T01:36:06;16.83;;;14.35;;
966;SDS011;56108;48.730;9.304;2023-04-08T01:38:16;17.65;;;15.88;;
966;SDS011;56108;48.730;9.304;2023-04-08T01:40:26;18.25;;;15.57;;
966;SDS011;56108;48.730;9.304;2023-04-08T01:42:36;16.40;;;14.48;;
966;SDS011;56108;48.730;9.304;2023-04-08T01:44:48;18.80;;;15.55;;
966;SDS011;56108;48.730;9.304;2023-04-08T01:46:58;18.55;;;15.07;;
966;SDS011;56108;48.730;9.304;2023-04-08T01:49:07;20.17;;;15.73;;
966;SDS011;56108;48.730;9.304;2023-04-08T01:51:16;17.70;;;14.07;;
966;SDS011;56108;48.730;9.304;2023-04-08T01:53:25;17.98;;;15.50;;
966;SDS011;56108;48.730;9.304;2023-04-08T01:55:33;20.20;;;18.13;;
966;SDS011;56108;48.730;9.304;2023-04-08T01:57:49;18.05;;;16.15;;
966;SDS011;56108;48.730;9.304;2023-04-08T01:59:59;19.33;;;15.52;;
966;SDS011;56108;48.730;9.304;2023-04-08T02:02:23;19.20;;;16.50;;
966;SDS011;56108;48.730;9.304;2023-04-08T02:04:34;18.90;;;16.30;;
966;SDS011;56108;48.730;9.304;2023-04-08T02:06:42;18.80;;;15.48;;
966;SDS011;56108;48.730;9.304;2023-04-08T02:08:51;19.23;;;16.50;;
966;SDS011;56108;48.730;9.304;2023-04-08T02:11:01;19.35;;;16.27;;
966;SDS011;56108;48.730;9.304;2023-04-08T02:13:11;17.83;;;16.00;;
966;SDS011;56108;48.730;9.304;2023-04-08T02:15:19;18.35;;;15.38;;
966;SDS011;56108;48.730;9.304;2023-04-08T02:17:29;16.63;;;14.85;;
966;SDS011;56108;48.730;9.304;2023-04-08T02:19:46;18.30;;;15.95;;
966;SDS011;56108;48.730;9.304;2023-04-08T02:22:01;16.02;;;13.98;;
966;SDS011;56108;48.730;9.304;2023-04-08T02:24:15;17.70;;;15.80;;
966;SDS011;56108;48.730;9.304;2023-04-08T02:26:25;17.15;;;14.75;;
966;SDS011;56108;48.730;9.304;2023-04-08T02:28:36;21.88;;;16.50;;
966;SDS011;56108;48.730;9.304;2023-04-08T02:30:47;17.15;;;14.63;;
966;SDS011;56108;48.730;9.304;2023-04-08T02:32:56;14.75;;;12.88;;
966;SDS011;56108;48.730;9.304;2023-04-08T02:35:05;18.20;;;15.20;;
966;SDS011;56108;48.730;9.304;2023-04-08T02:37:14;16.05;;;14.35;;
966;SDS011;56108;48.730;9.304;2023-04-08T02:39:29;16.92;;;14.82;;
966;SDS011;56108;48.730;9.304;2023-04-08T02:41:40;18.55;;;16.60;;
966;SDS011;56108;48.730;9.304;2023-04-08T02:43:51;16.92;;;14.65;;
966;SDS011;56108;48.730;9.304;2023-04-08T02:46:00;18.05;;;15.38;;
966;SDS011;56108;48.730;9.304;2023-04-08T02:48:08;17.67;;;14.88;;
966;SDS011;56108;48.730;9.304;2023-04-08T02:50:16;17.45;;;15.55;;
966;SDS011;56108;48.730;9.304;2023-04-08T02:52:24;15.63;;;13.98;;
966;SDS011;56108;48.730;9.304;2023-04-08T02:54:32;17.63;;;15.23;;
966;SDS011;56108;48.730;9.304;2023-04-08T02:56:40;18.45;;;15.60;;
966;SDS011;56108;48.730;9.304;2023-04-08T02:58:50;21.02;;;15.95;;
966;SDS011;56108;48.730;9.304;2023-04-08T03:00:58;20.30;;;15.80;;
966;SDS011;56108;48.730;9.304;2023-04-08T03:03:06;17.88;;;14.70;;
966;SDS011;56108;48.730;9.304;2023-04-08T03:05:15;19.05;;;16.42;;
966;SDS011;56108;48.730;9.304;2023-04-08T03:07:23;18.55;;;15.20;;
966;SDS011;56108;48.730;9.304;2023-04-08T03:09:31;17.67;;;14.45;;
966;SDS011;56108;48.730;9.304;2023-04-08T03:11:39;21.13;;;15.60;;
966;SDS011;56108;48.730;9.304;2023-04-08T03:13:50;16.25;;;14.57;;
966;SDS011;56108;48.730;9.304;2023-04-08T03:15:58;18.20;;;14.82;;
966;SDS011;56108;48.730;9.304;2023-04-08T03:18:07;17.27;;;14.52;;
966;SDS011;56108;48.730;9.304;2023-04-08T03:20:15;18.27;;;14.88;;
966;SDS011;56108;48.730;9.304;2023-04-08T03:22:23;17.30;;;15.10;;
966;SDS011;56108;48.730;9.304;2023-04-08T03:24:31;19.70;;;15.18;;
966;SDS011;56108;48.730;9.304;2023-04-08T03:26:39;18.75;;;16.33;;
966;SDS011;56108;48.730;9.304;2023-04-08T03:28:46;17.33;;;15.38;;
966;SDS011;56108;48.730;9.304;2023-04-08T03:30:57;19.60;;;15.30;;
966;SDS011;56108;48.730;9.304;2023-04-08T03:33:06;17.25;;;14.13;;
966;SDS011;56108;48.730;9.304;2023-04-08T03:35:14;19.70;;;14.93;;
966;SDS011;56108;48.730;9.304;2023-04-08T03:37:22;20.83;;;15.40;;
966;SDS011;56108;48.730;9.304;2023-04-08T03:39:30;21.00;;;15.40;;
966;SDS011;56108;48.730;9.304;2023-04-08T03:41:37;19.25;;;15.82;;
966;SDS011;56108;48.730;9.304;2023-04-08T03:43:45;19.58;;;15.55;;
966;SDS011;56108;48.730;9.304;2023-04-08T03:45:54;19.00;;;16.45;;
966;SDS011;56108;48.730;9.304;2023-04-08T03:48:05;20.60;;;16.05;;
966;SDS011;56108;48.730;9.304;2023-04-08T03:50:13;20.25;;;15.77;;
966;SDS011;56108;48.730;9.304;2023-04-08T03:52:20;24.08;;;16.65;;
966;SDS011;56108;48.730;9.304;2023-04-08T03:54:28;17.75;;;14.25;;
966;SDS011;56108;48.730;9.304;2023-04-08T03:56:36;21.75;;;16.10;;
966;SDS011;56108;48.730;9.304;2023-04-08T03:58:44;22.00;;;16.35;;
966;SDS011;56108;48.730;9.304;2023-04-08T04:00:53;21.00;;;16.58;;
966;SDS011;56108;48.730;9.304;2023-04-08T04:03:00;20.77;;;15.48;;
966;SDS011;56108;48.730;9.304;2023-04-08T04:05:11;21.67;;;16.60;;
966;SDS011;56108;48.730;9.304;2023-04-08T04:07:19;22.45;;;17.23;;
966;SDS011;56108;48.730;9.304;2023-04-08T04:09:27;22.73;;;17.20;;
966;SDS011;56108;48.730;9.304;2023-04-08T04:11:35;19.38;;;15.60;;
966;SDS011;56108;48.730;9.304;2023-04-08T04:13:43;21.88;;;17.48;;
966;SDS011;56108;48.730;9.304;2023-04-08T04:15:51;22.30;;;17.95;;
966;SDS011;56108;48.730;9.304;2023-04-08T04:17:59;22.35;;;17.45;;
966;SDS011;56108;48.730;9.304;2023-04-08T04:20:07;21.98;;;16.23;;
966;SDS011;56108;48.730;9.304;2023-04-08T04:22:19;19.60;;;15.80;;
966;SDS011;56108;48.730;9.304;2023-04-08T04:24:26;21.75;;;16.30;;
966;SDS011;56108;48.730;9.304;2023-04-08T04:26:34;22.30;;;17.17;;
966;SDS011;56108;48.730;9.304;2023-04-08T04:28:42;23.50;;;16.70;;
966;SDS011;56108;48.730;9.304;2023-04-08T04:30:50;21.60;;;16.23;;
966;SDS011;56108;48.730;9.304;2023-04-08T04:33:00;24.00;;;17.63;;
966;SDS011;56108;48.730;9.304;2023-04-08T04:35:11;23.25;;;17.13;;
966;SDS011;56108;48.730;9.304;2023-04-08T04:37:19;24.40;;;17.52;;
966;SDS011;56108;48.730;9.304;2023-04-08T04:39:27;24.20;;;17.60;;
966;SDS011;56108;48.730;9.304;2023-04-08T04:41:35;24.05;;;17.05;;
966;SDS011;56108;48.730;9.304;2023-04-08T04:43:44;21.92;;;17.50;;
966;SDS011;56108;48.730;9.304;2023-04-08T04:45:52;24.30;;;17.52;;
966;SDS011;56108;48.730;9.304;2023-04-08T04:48:00;24.45;;;17.67;;
966;SDS011;56108;48.730;9.304;2023-04-08T04:50:11;22.33;;;18.30;;
966;SDS011;56108;48.730;9.304;2023-04-08T04:52:19;26.45;;;17.38;;
966;SDS011;56108;48.730;9.304;2023-04-08T04:54:26;25.27;;;18.60;;
966;SDS011;56108;48.730;9.304;2023-04-08T04:56:40;24.10;;;16.98;;
966;SDS011;56108;48.730;9.304;2023-04-08T04:58:52;22.75;;;17.27;;
966;SDS011;56108;48.730;9.304;2023-04-08T05:00:59;21.73;;;17.05;;
966;SDS011;56108;48.730;9.304;2023-04-08T05:03:07;21.90;;;16.45;;
966;SDS011;56108;48.730;9.304;2023-04-08T05:05:18;24.98;;;18.20;;
966;SDS011;56108;48.730;9.304;2023-04-08T05:07:26;21.20;;;16.15;;
966;SDS011;56108;48.730;9.304;2023-04-08T05:09:34;18.88;;;15.85;;
966;SDS011;56108;48.730;9.304;2023-04-08T05:11:42;21.60;;;16.83;;
966;SDS011;56108;48.730;9.304;2023-04-08T05:13:50;22.30;;;16.75;;
966;SDS011;56108;48.730;9.304;2023-04-08T05:15:57;23.60;;;18.58;;
966;SDS011;56108;48.730;9.304;2023-04-08T05:18:06;23.50;;;17.33;;
966;SDS011;56108;48.730;9.304;2023-04-08T05:20:14;23.80;;;17.17;;
966;SDS011;56108;48.730;9.304;2023-04-08T05:22:24;18.63;;;15.93;;
966;SDS011;56108;48.730;9.304;2023-04-08T05:24:32;20.13;;;14.77;;
966;SDS011;56108;48.730;9.304;2023-04-08T05:26:40;20.38;;;16.95;;
966;SDS011;56108;48.730;9.304;2023-04-08T05:28:48;24.38;;;18.60;;
966;SDS011;56108;48.730;9.304;2023-04-08T05:30:56;22.85;;;16.58;;
966;SDS011;56108;48.730;9.304;2023-04-08T05:33:04;25.23;;;18.15;;
966;SDS011;56108;48.730;9.304;2023-04-08T05:35:12;21.63;;;18.20;;
966;SDS011;56108;48.730;9.304;2023-04-08T05:37:20;20.80;;;17.35;;
966;SDS011;56108;48.730;9.304;2023-04-08T05:39:31;26.95;;;18.60;;
966;SDS011;56108;48.730;9.304;2023-04-08T05:41:39;20.48;;;17.00;;
966;SDS011;56108;48.730;9.304;2023-04-08T05:43:46;21.80;;;17.02;;
966;SDS011;56108;48.730;9.304;2023-04-08T05:45:54;22.67;;;18.63;;
966;SDS011;56108;48.730;9.304;2023-04-08T05:48:02;24.02;;;18.75;;
966;SDS011;56108;48.730;9.304;2023-04-08T05:50:11;21.17;;;17.00;;
966;SDS011;56108;48.730;9.304;2023-04-08T05:52:18;22.58;;;17.63;;
966;SDS011;56108;48.730;9.304;2023-04-08T05:54:26;25.77;;;18.70;;
966;SDS011;56108;48.730;9.304;2023-04-08T05:56:37;23.52;;;19.40;;
966;SDS011;56108;48.730;9.304;2023-04-08T05:58:45;23.52;;;18.50;;
966;SDS011;56108;48.730;9.304;2023-04-08T06:00:53;22.95;;;19.00;;
966;SDS011;56108;48.730;9.304;2023-04-08T06:03:01;22.40;;;19.88;;
966;SDS011;56108;48.730;9.304;2023-04-08T06:05:09;24.10;;;19.00;;
966;SDS011;56108;48.730;9.304;2023-04-08T06:07:17;26.50;;;18.90;;
966;SDS011;56108;48.730;9.304;2023-04-08T06:09:25;25.60;;;20.73;;
966;SDS011;56108;48.730;9.304;2023-04-08T06:11:33;22.77;;;20.23;;
966;SDS011;56108;48.730;9.304;2023-04-08T06:13:43;24.45;;;18.42;;
966;SDS011;56108;48.730;9.304;2023-04-08T06:15:51;29.20;;;19.73;;
966;SDS011;56108;48.730;9.304;2023-04-08T06:17:59;22.63;;;20.23;;
966;SDS011;56108;48.730;9.304;2023-04-08T06:20:07;26.83;;;19.95;;
966;SDS011;56108;48.730;9.304;2023-04-08T06:22:18;22.77;;;19.55;;
966;SDS011;56108;48.730;9.304;2023-04-08T06:24:26;24.45;;;19.08;;
966;SDS011;56108;48.730;9.304;2023-04-08T06:26:35;22.73;;;18.70;;
966;SDS011;56108;48.730;9.304;2023-04-08T06:28:45;24.67;;;19.17;;
966;SDS011;56108;48.730;9.304;2023-04-08T06:30:53;22.30;;;17.67;;
966;SDS011;56108;48.730;9.304;2023-04-08T06:33:01;21.20;;;17.42;;
966;SDS011;56108;48.730;9.304;2023-04-08T06:35:09;21.27;;;17.35;;
966;SDS011;56108;48.730;9.304;2023-04-08T06:37:17;19.20;;;15.60;;
966;SDS011;56108;48.730;9.304;2023-04-08T06:39:25;20.92;;;15.85;;
966;SDS011;56108;48.730;9.304;2023-04-08T06:41:33;18.88;;;15.38;;
966;SDS011;56108;48.730;9.304;2023-04-08T06:43:57;20.70;;;16.67;;
966;SDS011;56108;48.730;9.304;2023-04-08T06:46:05;19.10;;;16.98;;
966;SDS011;56108;48.730;9.304;2023-04-08T06:48:13;20.08;;;17.40;;
966;SDS011;56108;48.730;9.304;2023-04-08T06:50:21;21.48;;;17.73;;
966;SDS011;56108;48.730;9.304;2023-04-08T06:52:29;20.88;;;16.45;;
966;SDS011;56108;48.730;9.304;2023-04-08T06:54:37;21.55;;;18.05;;
966;SDS011;56108;48.730;9.304;2023-04-08T06:56:45;19.17;;;16.30;;
966;SDS011;56108;48.730;9.304;2023-04-08T06:58:52;21.13;;;17.17;;
966;SDS011;56108;48.730;9.304;2023-04-08T07:01:03;20.52;;;15.57;;
966;SDS011;56108;48.730;9.304;2023-04-08T07:03:11;18.13;;;15.15;;
966;SDS011;56108;48.730;9.304;2023-04-08T07:05:19;17.40;;;14.93;;
966;SDS011;56108;48.730;9.304;2023-04-08T07:07:27;16.50;;;14.77;;
966;SDS011;56108;48.730;9.304;2023-04-08T07:09:35;17.10;;;14.70;;
966;SDS011;56108;48.730;9.304;2023-04-08T07:11:45;18.98;;;15.18;;
966;SDS011;56108;48.730;9.304;2023-04-08T07:13:52;18.10;;;14.65;;
966;SDS011;56108;48.730;9.304;2023-04-08T07:16:03;16.23;;;14.52;;
966;SDS011;56108;48.730;9.304;2023-04-08T07:18:11;17.90;;;15.18;;
966;SDS011;56108;48.730;9.304;2023-04-08T07:20:19;17.27;;;15.07;;
966;SDS011;56108;48.730;9.304;2023-04-08T07:22:28;19.13;;;16.00;;
966;SDS011;56108;48.730;9.304;2023-04-08T07:24:36;16.60;;;14.60;;
966;SDS011;56108;48.730;9.304;2023-04-08T07:26:46;17.88;;;16.00;;
966;SDS011;56108;48.730;9.304;2023-04-08T07:28:55;20.23;;;16.10;;
966;SDS011;56108;48.730;9.304;2023-04-08T07:31:12;18.75;;;16.75;;
966;SDS011;56108;48.730;9.304;2023-04-08T07:33:21;16.67;;;14.48;;
966;SDS011;56108;48.730;9.304;2023-04-08T07:35:30;20.02;;;16.45;;
966;SDS011;56108;48.730;9.304;2023-04-08T07:37:38;17.27;;;15.00;;
966;SDS011;56108;48.730;9.304;2023-04-08T07:39:46;16.92;;;14.88;;
966;SDS011;56108;48.730;9.304;2023-04-08T07:41:54;15.98;;;13.85;;
966;SDS011;56108;48.730;9.304;2023-04-08T07:44:02;16.05;;;13.70;;
966;SDS011;56108;48.730;9.304;2023-04-08T07:46:12;16.38;;;14.57;;
966;SDS011;56108;48.730;9.304;2023-04-08T07:48:20;17.15;;;14.70;;
966;SDS011;56108;48.730;9.304;2023-04-08T07:50:28;17.77;;;15.32;;
966;SDS011;56108;48.730;9.304;2023-04-08T07:52:36;15.45;;;13.85;;
966;SDS011;56108;48.730;9.304;2023-04-08T07:54:44;18.38;;;15.52;;
966;SDS011;56108;48.730;9.304;2023-04-08T07:56:52;17.10;;;15.35;;
966;SDS011;56108;48.730;9.304;2023-04-08T07:59:01;15.05;;;13.45;;
966;SDS011;56108;48.730;9.304;2023-04-08T08:01:18;15.60;;;13.50;;
966;SDS011;56108;48.730;9.304;2023-04-08T08:03:27;16.67;;;13.20;;
966;SDS011;56108;48.730;9.304;2023-04-08T08:05:37;14.07;;;12.38;;
966;SDS011;56108;48.730;9.304;2023-04-08T08:07:45;14.18;;;12.88;;
966;SDS011;56108;48.730;9.304;2023-04-08T08:09:54;15.05;;;13.40;;
966;SDS011;56108;48.730;9.304;2023-04-08T08:12:02;15.30;;;12.60;;
966;SDS011;56108;48.730;9.304;2023-04-08T08:14:10;13.45;;;12.05;;
966;SDS011;56108;48.730;9.304;2023-04-08T08:16:20;15.85;;;13.07;;
966;SDS011;56108;48.730;9.304;2023-04-08T08:18:30;15.02;;;13.43;;
966;SDS011;56108;48.730;9.304;2023-04-08T08:20:40;14.52;;;13.02;;
966;SDS011;56108;48.730;9.304;2023-04-08T08:22:48;15.40;;;13.85;;
966;SDS011;56108;48.730;9.304;2023-04-08T08:25:01;15.40;;;13.88;;
966;SDS011;56108;48.730;9.304;2023-04-08T08:27:09;15.48;;;13.77;;
966;SDS011;56108;48.730;9.304;2023-04-08T08:29:17;16.65;;;14.95;;
966;SDS011;56108;48.730;9.304;2023-04-08T08:31:27;17.35;;;15.55;;
966;SDS011;56108;48.730;9.304;2023-04-08T08:33:35;15.98;;;14.35;;
966;SDS011;56108;48.730;9.304;2023-04-08T08:35:43;17.00;;;15.07;;
966;SDS011;56108;48.730;9.304;2023-04-08T08:37:51;15.88;;;14.02;;
966;SDS011;56108;48.730;9.304;2023-04-08T08:39:59;16.48;;;14.73;;
966;SDS011;56108;48.730;9.304;2023-04-08T08:42:17;16.13;;;14.43;;
966;SDS011;56108;48.730;9.304;2023-04-08T08:44:25;15.82;;;14.20;;
966;SDS011;56108;48.730;9.304;2023-04-08T08:46:36;17.45;;;15.05;;
966;SDS011;56108;48.730;9.304;2023-04-08T08:48:50;18.05;;;16.15;;
966;SDS011;56108;48.730;9.304;2023-04-08T08:50:58;16.08;;;14.38;;
966;SDS011;56108;48.730;9.304;2023-04-08T08:53:06;16.08;;;14.50;;
966;SDS011;56108;48.730;9.304;2023-04-08T08:55:14;16.17;;;14.45;;
966;SDS011;56108;48.730;9.304;2023-04-08T08:57:44;16.45;;;14.85;;
966;SDS011;56108;48.730;9.304;2023-04-08T08:59:54;15.82;;;14.32;;
966;SDS011;56108;48.730;9.304;2023-04-08T09:02:04;17.52;;;15.85;;
966;SDS011;56108;48.730;9.304;2023-04-08T09:04:30;16.75;;;15.05;;
966;SDS011;56108;48.730;9.304;2023-04-08T09:06:39;16.10;;;14.50;;
966;SDS011;56108;48.730;9.304;2023-04-08T09:08:46;16.20;;;14.70;;
966;SDS011;56108;48.730;9.304;2023-04-08T09:10:55;16.13;;;14.48;;
966;SDS011;56108;48.730;9.304;2023-04-08T09:13:16;16.92;;;15.32;;
966;SDS011;56108;48.730;9.304;2023-04-08T09:15:24;16.02;;;14.43;;
966;SDS011;56108;48.730;9.304;2023-04-08T09:17:36;14.57;;;13.20;;
966;SDS011;56108;48.730;9.304;2023-04-08T09:22:13;16.25;;;14.65;;
966;SDS011;56108;48.730;9.304;2023-04-08T09:24:30;17.63;;;15.93;;
966;SDS011;56108;48.730;9.304;2023-04-08T09:26:38;15.43;;;13.93;;
966;SDS011;56108;48.730;9.304;2023-04-08T09:28:58;17.55;;;15.85;;
966;SDS011;56108;48.730;9.304;2023-04-08T09:31:28;16.52;;;15.02;;
966;SDS011;56108;48.730;9.304;2023-04-08T09:33:40;15.95;;;14.43;;
966;SDS011;56108;48.730;9.304;2023-04-08T09:35:47;18.50;;;16.80;;
966;SDS011;56108;48.730;9.304;2023-04-08T09:37:56;16.45;;;14.85;;
966;SDS011;56108;48.730;9.304;2023-04-08T09:40:06;17.08;;;15.38;;
966;SDS011;56108;48.730;9.304;2023-04-08T09:42:17;17.38;;;15.70;;
966;SDS011;56108;48.730;9.304;2023-04-08T09:44:27;18.33;;;16.52;;
966;SDS011;56108;48.730;9.304;2023-04-08T09:46:38;17.42;;;15.68;;
966;SDS011;56108;48.730;9.304;2023-04-08T09:49:00;17.90;;;16.20;;
966;SDS011;56108;48.730;9.304;2023-04-08T09:51:14;15.98;;;14.63;;
966;SDS011;56108;48.730;9.304;2023-04-08T09:53:23;16.27;;;14.82;;
966;SDS011;56108;48.730;9.304;2023-04-08T09:55:36;19.42;;;16.77;;
966;SDS011;56108;48.730;9.304;2023-04-08T09:57:45;16.33;;;14.82;;
966;SDS011;56108;48.730;9.304;2023-04-08T10:00:02;18.13;;;16.42;;
966;SDS011;56108;48.730;9.304;2023-04-08T10:02:19;16.40;;;14.90;;
966;SDS011;56108;48.730;9.304;2023-04-08T10:04:35;15.68;;;14.18;;
966;SDS011;56108;48.730;9.304;2023-04-08T10:06:48;16.83;;;15.32;;
966;SDS011;56108;48.730;9.304;2023-04-08T10:09:01;16.05;;;14.63;;
966;SDS011;56108;48.730;9.304;2023-04-08T10:11:09;16.85;;;15.30;;
966;SDS011;56108;48.730;9.304;2023-04-08T10:13:18;18.33;;;16.52;;
966;SDS011;56108;48.730;9.304;2023-04-08T10:15:26;17.60;;;16.00;;
966;SDS011;56108;48.730;9.304;2023-04-08T10:17:35;17.33;;;15.63;;
966;SDS011;56108;48.730;9.304;2023-04-08T10:19:46;18.42;;;16.80;;
966;SDS011;56108;48.730;9.304;2023-04-08T10:21:54;16.35;;;14.85;;
966;SDS011;56108;48.730;9.304;2023-04-08T10:24:06;17.48;;;15.65;;
966;SDS011;56108;48.730;9.304;2023-04-08T10:26:28;17.45;;;15.68;;
966;SDS011;56108;48.730;9.304;2023-04-08T10:28:38;14.88;;;13.38;;
966;SDS011;56108;48.730;9.304;2023-04-08T10:30:46;15.32;;;13.80;;
966;SDS011;56108;48.730;9.304;2023-04-08T10:32:55;16.48;;;14.88;;
966;SDS011;56108;48.730;9.304;2023-04-08T10:35:06;16.65;;;15.00;;
966;SDS011;56108;48.730;9.304;2023-04-08T10:37:14;17.50;;;15.80;;
966;SDS011;56108;48.730;9.304;2023-04-08T10:39:23;16.27;;;14.70;;
966;SDS011;56108;48.730;9.304;2023-04-08T10:41:33;17.00;;;15.32;;
966;SDS011;56108;48.730;9.304;2023-04-08T10:43:41;16.08;;;14.55;;
966;SDS011;56108;48.730;9.304;2023-04-08T10:45:49;16.60;;;15.00;;
966;SDS011;56108;48.730;9.304;2023-04-08T10:48:10;17.33;;;15.52;;
966;SDS011;56108;48.730;9.304;2023-04-08T10:50:24;16.45;;;14.80;;
966;SDS011;56108;48.730;9.304;2023-04-08T10:52:32;16.80;;;15.20;;
966;SDS011;56108;48.730;9.304;2023-04-08T10:54:43;16.08;;;14.32;;
966;SDS011;56108;48.730;9.304;2023-04-08T10:56:53;17.73;;;15.75;;
966;SDS011;56108;48.730;9.304;2023-04-08T10:59:01;16.02;;;14.23;;
966;SDS011;56108;48.730;9.304;2023-04-08T11:01:10;15.82;;;14.23;;
966;SDS011;56108;48.730;9.304;2023-04-08T11:03:18;16.10;;;14.60;;
966;SDS011;56108;48.730;9.304;2023-04-08T11:05:29;17.17;;;15.43;;
966;SDS011;56108;48.730;9.304;2023-04-08T11:07:38;17.05;;;15.20;;
966;SDS011;56108;48.730;9.304;2023-04-08T11:09:47;16.50;;;14.85;;
966;SDS011;56108;48.730;9.304;2023-04-08T11:11:55;16.02;;;14.50;;
966;SDS011;56108;48.730;9.304;2023-04-08T11:14:03;16.60;;;14.65;;
966;SDS011;56108;48.730;9.304;2023-04-08T11:16:12;16.75;;;15.05;;
966;SDS011;56108;48.730;9.304;2023-04-08T11:18:22;17.17;;;15.27;;
966;SDS011;56108;48.730;9.304;2023-04-08T11:20:33;17.05;;;15.25;;
966;SDS011;56108;48.730;9.304;2023-04-08T11:22:42;16.98;;;15.23;;
966;SDS011;56108;48.730;9.304;2023-04-08T11:24:51;16.38;;;14.77;;
966;SDS011;56108;48.730;9.304;2023-04-08T11:26:59;16.65;;;14.90;;
966;SDS011;56108;48.730;9.304;2023-04-08T11:29:08;17.10;;;15.40;;
966;SDS011;56108;48.730;9.304;2023-04-08T11:31:19;16.65;;;15.05;;
966;SDS011;56108;48.730;9.304;2023-04-08T11:33:29;17.30;;;15.68;;
966;SDS011;56108;48.730;9.304;2023-04-08T11:35:41;15.50;;;14.10;;
966;SDS011;56108;48.730;9.304;2023-04-08T11:37:51;15.98;;;14.35;;
966;SDS011;56108;48.730;9.304;2023-04-08T11:39:59;16.00;;;14.30;;
966;SDS011;56108;48.730;9.304;2023-04-08T11:42:07;16.52;;;14.75;;
966;SDS011;56108;48.730;9.304;2023-04-08T11:44:15;16.48;;;14.98;;
966;SDS011;56108;48.730;9.304;2023-04-08T11:46:22;15.70;;;14.18;;
966;SDS011;56108;48.730;9.304;2023-04-08T11:48:31;15.23;;;13.63;;
966;SDS011;56108;48.730;9.304;2023-04-08T11:50:42;15.18;;;13.68;;
966;SDS011;56108;48.730;9.304;2023-04-08T11:52:51;15.48;;;13.98;;
966;SDS011;56108;48.730;9.304;2023-04-08T11:55:00;16.70;;;14.77;;
966;SDS011;56108;48.730;9.304;2023-04-08T11:57:08;17.25;;;15.50;;
966;SDS011;56108;48.730;9.304;2023-04-08T11:59:16;15.90;;;14.30;;
966;SDS011;56108;48.730;9.304;2023-04-08T12:01:25;15.88;;;14.18;;
966;SDS011;56108;48.730;9.304;2023-04-08T12:03:33;15.85;;;13.05;;
966;SDS011;56108;48.730;9.304;2023-04-08T12:05:44;16.27;;;14.65;;
966;SDS011;56108;48.730;9.304;2023-04-08T12:07:52;16.20;;;14.57;;
966;SDS011;56108;48.730;9.304;2023-04-08T12:10:01;14.55;;;13.15;;
966;SDS011;56108;48.730;9.304;2023-04-08T12:12:09;14.70;;;13.25;;
966;SDS011;56108;48.730;9.304;2023-04-08T12:14:17;16.52;;;14.82;;
966;SDS011;56108;48.730;9.304;2023-04-08T12:16:25;15.90;;;14.05;;
966;SDS011;56108;48.730;9.304;2023-04-08T12:18:33;15.35;;;13.88;;
966;SDS011;56108;48.730;9.304;2023-04-08T12:20:44;16.15;;;14.55;;
966;SDS011;56108;48.730;9.304;2023-04-08T12:22:52;15.30;;;13.80;;
966;SDS011;56108;48.730;9.304;2023-04-08T12:25:00;16.73;;;15.05;;
966;SDS011;56108;48.730;9.304;2023-04-08T12:27:08;15.50;;;13.95;;
966;SDS011;56108;48.730;9.304;2023-04-08T12:29:16;15.57;;;13.98;;
966;SDS011;56108;48.730;9.304;2023-04-08T12:31:24;15.88;;;14.35;;
966;SDS011;56108;48.730;9.304;2023-04-08T12:33:32;15.18;;;13.73;;
966;SDS011;56108;48.730;9.304;2023-04-08T12:35:40;15.70;;;14.20;;
966;SDS011;56108;48.730;9.304;2023-04-08T12:37:51;17.27;;;14.70;;
966;SDS011;56108;48.730;9.304;2023-04-08T12:39:59;14.80;;;13.40;;
966;SDS011;56108;48.730;9.304;2023-04-08T12:42:07;16.17;;;14.68;;
966;SDS011;56108;48.730;9.304;2023-04-08T12:44:15;16.20;;;14.50;;
966;SDS011;56108;48.730;9.304;2023-04-08T12:46:23;16.00;;;14.45;;
966;SDS011;56108;48.730;9.304;2023-04-08T12:48:32;15.02;;;13.52;;
966;SDS011;56108;48.730;9.304;2023-04-08T12:50:40;16.60;;;15.00;;
966;SDS011;56108;48.730;9.304;2023-04-08T12:52:50;15.82;;;14.38;;
966;SDS011;56108;48.730;9.304;2023-04-08T12:54:59;15.40;;;13.90;;
966;SDS011;56108;48.730;9.304;2023-04-08T12:57:06;17.27;;;15.48;;
966;SDS011;56108;48.730;9.304;2023-04-08T12:59:14;14.35;;;13.00;;
966;SDS011;56108;48.730;9.304;2023-04-08T13:01:22;15.30;;;13.88;;
966;SDS011;56108;48.730;9.304;2023-04-08T13:03:31;15.27;;;13.95;;